createdAt,value
2022-12-31T00:00:11.378Z,0
2022-12-31T00:01:27.672Z,0
2022-12-31T00:02:43.963Z,0
2022-12-31T00:03:59.272Z,0
2022-12-31T00:05:15.569Z,0
2022-12-31T00:06:31.867Z,0
2022-12-31T00:07:48.165Z,0
2022-12-31T00:09:04.450Z,0
2022-12-31T00:10:20.750Z,0
2022-12-31T00:11:37.047Z,0
2022-12-31T00:12:53.329Z,0
2022-12-31T00:14:09.629Z,0
2022-12-31T00:15:25.928Z,0
2022-12-31T00:16:42.225Z,0
2022-12-31T00:17:58.508Z,0
2022-12-31T00:19:14.815Z,0
2022-12-31T00:20:30.126Z,0
2022-12-31T00:21:46.402Z,0
2022-12-31T00:23:02.696Z,0
2022-12-31T00:24:18.991Z,0
2022-12-31T00:25:35.299Z,0
2022-12-31T00:26:51.590Z,0
2022-12-31T00:28:07.892Z,0
2022-12-31T00:29:24.165Z,0
2022-12-31T00:30:40.470Z,0
2022-12-31T00:31:56.755Z,0
2022-12-31T00:33:13.060Z,0
2022-12-31T00:34:29.340Z,0
2022-12-31T00:35:45.638Z,0
2022-12-31T00:37:00.946Z,0
2022-12-31T00:38:17.245Z,0
2022-12-31T00:39:33.540Z,0
2022-12-31T00:40:49.832Z,0
2022-12-31T00:42:06.124Z,0
2022-12-31T00:43:22.427Z,0
2022-12-31T00:44:38.710Z,0
2022-12-31T00:45:55.008Z,0
2022-12-31T00:47:11.315Z,0
2022-12-31T00:48:27.602Z,0
2022-12-31T00:49:43.901Z,0
2022-12-31T00:51:00.179Z,0
2022-12-31T00:52:16.489Z,0
2022-12-31T00:53:31.794Z,0
2022-12-31T00:54:48.081Z,0
2022-12-31T00:56:04.391Z,0
2022-12-31T00:57:20.666Z,0
2022-12-31T00:58:36.972Z,0
2022-12-31T00:59:53.264Z,0
2022-12-31T01:01:09.552Z,0
2022-12-31T01:02:25.848Z,0
2022-12-31T01:03:42.148Z,0
2022-12-31T01:04:58.432Z,0
2022-12-31T01:06:14.731Z,0
2022-12-31T01:07:31.032Z,0
2022-12-31T01:08:47.317Z,0
2022-12-31T01:10:02.620Z,0
2022-12-31T01:11:18.926Z,0
2022-12-31T01:12:35.207Z,0
2022-12-31T01:13:51.501Z,0
2022-12-31T01:15:07.813Z,0
2022-12-31T01:16:24.107Z,0
2022-12-31T01:17:40.387Z,0
2022-12-31T01:18:56.687Z,0
2022-12-31T01:20:12.989Z,0
2022-12-31T01:21:29.277Z,0
2022-12-31T01:22:45.559Z,0
2022-12-31T01:24:01.870Z,0
2022-12-31T01:25:18.152Z,0
2022-12-31T01:26:33.456Z,0
2022-12-31T01:27:49.760Z,0
2022-12-31T01:29:06.061Z,0
2022-12-31T01:30:22.342Z,0
2022-12-31T01:31:38.644Z,0
2022-12-31T01:32:54.926Z,0
2022-12-31T01:34:11.235Z,0
2022-12-31T01:35:27.530Z,0
2022-12-31T01:36:43.829Z,0
2022-12-31T01:38:00.109Z,0
2022-12-31T01:39:16.407Z,0
2022-12-31T01:40:32.694Z,0
2022-12-31T01:41:48.991Z,0
2022-12-31T01:43:04.306Z,0
2022-12-31T01:44:20.602Z,0
2022-12-31T01:45:36.883Z,0
2022-12-31T01:46:53.183Z,0
2022-12-31T01:48:09.482Z,0
2022-12-31T01:49:25.770Z,0
2022-12-31T01:50:42.060Z,0
2022-12-31T01:51:58.358Z,0
2022-12-31T01:53:14.647Z,0
2022-12-31T01:54:30.949Z,0
2022-12-31T01:55:47.241Z,0
2022-12-31T01:57:03.533Z,0
2022-12-31T01:58:19.823Z,0
2022-12-31T01:59:35.135Z,0
2022-12-31T02:00:51.425Z,0
2022-12-31T02:02:07.734Z,0
2022-12-31T02:03:24.024Z,0
2022-12-31T02:04:40.321Z,0
2022-12-31T02:05:56.602Z,0
2022-12-31T02:07:12.909Z,0
2022-12-31T02:08:29.192Z,0
2022-12-31T02:09:45.494Z,0
2022-12-31T02:11:01.778Z,0
2022-12-31T02:12:18.081Z,0
2022-12-31T02:13:34.378Z,0
2022-12-31T02:14:50.666Z,0
2022-12-31T02:16:05.979Z,0
2022-12-31T02:17:22.259Z,0
2022-12-31T02:18:38.570Z,0
2022-12-31T02:19:54.863Z,0
2022-12-31T02:21:11.159Z,0
2022-12-31T02:22:27.446Z,0
2022-12-31T02:23:42.776Z,0
2022-12-31T02:24:59.057Z,0
2022-12-31T02:26:15.352Z,0
2022-12-31T02:27:31.635Z,0
2022-12-31T02:28:47.935Z,0
2022-12-31T02:30:04.219Z,0
2022-12-31T02:31:20.525Z,0
2022-12-31T02:32:36.808Z,0
2022-12-31T02:33:53.113Z,0
2022-12-31T02:35:09.406Z,0
2022-12-31T02:37:41.998Z,0
2022-12-31T02:38:58.283Z,0
2022-12-31T02:40:13.591Z,0
2022-12-31T02:41:29.903Z,0
2022-12-31T02:42:46.188Z,0
2022-12-31T02:44:02.467Z,0
2022-12-31T02:45:18.763Z,0
2022-12-31T02:46:35.055Z,0
2022-12-31T02:47:51.372Z,0
2022-12-31T02:49:07.645Z,0
2022-12-31T02:50:23.958Z,0
2022-12-31T02:51:40.236Z,0
2022-12-31T02:52:56.532Z,0
2022-12-31T02:54:12.821Z,0
2022-12-31T02:55:29.114Z,0
2022-12-31T02:56:44.433Z,0
2022-12-31T02:58:00.735Z,0
2022-12-31T02:59:17.028Z,0
2022-12-31T03:00:33.313Z,0
2022-12-31T03:01:49.614Z,0
2022-12-31T03:03:05.909Z,0
2022-12-31T03:04:22.199Z,0
2022-12-31T03:05:38.495Z,0
2022-12-31T03:06:54.775Z,0
2022-12-31T03:08:11.076Z,0
2022-12-31T03:09:27.369Z,0
2022-12-31T03:10:43.676Z,0
2022-12-31T03:11:59.963Z,0
2022-12-31T03:13:15.268Z,0
2022-12-31T03:14:31.567Z,0
2022-12-31T03:15:47.862Z,0
2022-12-31T03:17:04.156Z,0
2022-12-31T03:18:20.448Z,0
2022-12-31T03:19:36.729Z,0
2022-12-31T03:20:53.023Z,0
2022-12-31T03:22:09.326Z,0
2022-12-31T03:23:25.611Z,0
2022-12-31T03:24:41.912Z,0
2022-12-31T03:25:58.216Z,0
2022-12-31T03:27:14.493Z,0
2022-12-31T03:28:30.792Z,0
2022-12-31T03:29:46.101Z,0
2022-12-31T03:31:02.392Z,0
2022-12-31T03:32:18.692Z,0
2022-12-31T03:33:34.990Z,0
2022-12-31T03:34:51.283Z,0
2022-12-31T03:36:07.575Z,0
2022-12-31T03:37:23.000Z,0
2022-12-31T03:38:40.175Z,0
2022-12-31T03:39:56.452Z,0
2022-12-31T03:41:12.757Z,0
2022-12-31T03:42:29.047Z,0
2022-12-31T03:43:45.338Z,0
2022-12-31T03:45:01.627Z,0
2022-12-31T03:46:16.944Z,0
2022-12-31T03:47:33.246Z,0
2022-12-31T03:48:49.531Z,0
2022-12-31T03:50:05.822Z,0
2022-12-31T03:51:22.131Z,0
2022-12-31T03:52:38.403Z,0
2022-12-31T03:53:54.705Z,0
2022-12-31T03:55:11.006Z,0
2022-12-31T03:56:27.291Z,0
2022-12-31T03:57:43.581Z,0
2022-12-31T03:58:59.882Z,0
2022-12-31T04:00:16.183Z,0
2022-12-31T04:01:32.471Z,0
2022-12-31T04:02:47.778Z,0
2022-12-31T04:04:04.083Z,0
2022-12-31T04:05:20.361Z,0
2022-12-31T04:06:36.659Z,0
2022-12-31T04:07:52.961Z,0
2022-12-31T04:09:09.247Z,0
2022-12-31T04:10:25.547Z,0
2022-12-31T04:11:41.840Z,0
2022-12-31T04:12:58.129Z,0
2022-12-31T04:14:14.424Z,0
2022-12-31T04:15:30.714Z,0
2022-12-31T04:16:47.004Z,0
2022-12-31T04:18:03.295Z,0
2022-12-31T04:19:18.616Z,0
2022-12-31T04:20:34.908Z,0
2022-12-31T04:21:51.211Z,0
2022-12-31T04:23:07.488Z,0
2022-12-31T04:24:23.791Z,0
2022-12-31T04:25:40.099Z,0
2022-12-31T04:26:56.380Z,0
2022-12-31T04:28:12.679Z,0
2022-12-31T04:29:28.973Z,0
2022-12-31T04:30:45.250Z,0
2022-12-31T04:32:01.000Z,0
2022-12-31T04:33:17.844Z,0
2022-12-31T04:34:34.148Z,0
2022-12-31T04:35:49.455Z,0
2022-12-31T04:37:05.737Z,0
2022-12-31T04:38:22.052Z,0
2022-12-31T04:39:38.332Z,0
2022-12-31T04:40:54.628Z,0
2022-12-31T04:42:10.910Z,0
2022-12-31T04:43:27.215Z,0
2022-12-31T04:44:43.504Z,0
2022-12-31T04:45:59.801Z,0
2022-12-31T04:47:16.090Z,0
2022-12-31T04:48:32.394Z,0
2022-12-31T04:49:48.695Z,0
2022-12-31T04:51:04.986Z,0
2022-12-31T04:52:20.294Z,0
2022-12-31T04:53:36.582Z,0
2022-12-31T04:54:52.869Z,0
2022-12-31T04:56:09.163Z,0
2022-12-31T04:57:25.459Z,0
2022-12-31T04:58:41.749Z,0
2022-12-31T04:59:58.056Z,0
2022-12-31T05:01:14.351Z,0
2022-12-31T05:02:30.647Z,0
2022-12-31T05:03:46.932Z,0
2022-12-31T05:05:03.216Z,0
2022-12-31T05:06:19.513Z,0
2022-12-31T05:07:35.804Z,0
2022-12-31T05:08:51.121Z,0
2022-12-31T05:10:07.407Z,0
2022-12-31T05:11:23.699Z,0
2022-12-31T05:12:40.004Z,0
2022-12-31T05:13:56.296Z,0
2022-12-31T05:15:12.605Z,0
2022-12-31T05:16:28.895Z,0
2022-12-31T05:17:45.176Z,0
2022-12-31T05:19:01.465Z,0
2022-12-31T05:20:17.770Z,0
2022-12-31T05:21:34.064Z,0
2022-12-31T05:22:50.358Z,0
2022-12-31T05:24:06.650Z,0
2022-12-31T05:25:21.963Z,0
2022-12-31T05:26:38.255Z,0
2022-12-31T05:27:54.537Z,0
2022-12-31T05:29:10.848Z,0
2022-12-31T05:30:27.124Z,0
2022-12-31T05:31:43.430Z,0
2022-12-31T05:32:59.724Z,0
2022-12-31T05:34:16.020Z,0
2022-12-31T05:35:32.308Z,0
2022-12-31T05:36:48.605Z,0
2022-12-31T05:38:04.893Z,0
2022-12-31T05:39:21.188Z,0
2022-12-31T05:40:37.479Z,0
2022-12-31T05:41:52.794Z,0
2022-12-31T05:43:09.090Z,0
2022-12-31T05:44:25.375Z,0
2022-12-31T05:45:41.677Z,0
2022-12-31T05:46:57.975Z,0
2022-12-31T05:48:14.256Z,0
2022-12-31T05:49:30.550Z,0
2022-12-31T05:50:46.842Z,0
2022-12-31T05:52:03.150Z,0
2022-12-31T05:53:19.432Z,0
2022-12-31T05:54:35.735Z,0
2022-12-31T05:55:52.020Z,0
2022-12-31T05:57:08.314Z,0
2022-12-31T05:58:23.635Z,0
2022-12-31T05:59:39.926Z,0
2022-12-31T06:00:56.215Z,0
2022-12-31T06:02:12.502Z,0
2022-12-31T06:03:28.794Z,0
2022-12-31T06:04:45.100Z,0
2022-12-31T06:06:01.400Z,0
2022-12-31T06:07:17.673Z,0
2022-12-31T06:08:33.980Z,0
2022-12-31T06:09:50.274Z,0
2022-12-31T06:11:06.563Z,0
2022-12-31T06:12:22.861Z,0
2022-12-31T06:13:39.161Z,0
2022-12-31T06:14:54.474Z,0
2022-12-31T06:16:10.762Z,0
2022-12-31T06:17:27.045Z,0
2022-12-31T06:18:43.331Z,0
2022-12-31T06:19:59.636Z,0
2022-12-31T06:21:15.925Z,0
2022-12-31T06:22:32.223Z,0
2022-12-31T06:23:48.516Z,0
2022-12-31T06:25:04.820Z,0
2022-12-31T06:26:21.105Z,0
2022-12-31T06:27:37.396Z,0
2022-12-31T06:28:53.681Z,0
2022-12-31T06:30:09.978Z,0
2022-12-31T06:31:25.300Z,0
2022-12-31T06:32:41.598Z,0
2022-12-31T06:33:57.875Z,0
2022-12-31T06:35:14.171Z,0
2022-12-31T06:36:30.474Z,0
2022-12-31T06:37:46.776Z,0
2022-12-31T06:39:02.085Z,0
2022-12-31T06:40:18.374Z,0
2022-12-31T06:41:34.669Z,0
2022-12-31T06:42:50.960Z,0
2022-12-31T06:44:07.252Z,0
2022-12-31T06:45:23.499Z,0
2022-12-31T06:46:39.743Z,0
2022-12-31T06:47:55.985Z,0
2022-12-31T06:49:12.224Z,0
2022-12-31T06:50:28.477Z,0
2022-12-31T06:51:44.717Z,0
2022-12-31T06:53:00.941Z,0
2022-12-31T06:54:17.183Z,0
2022-12-31T06:55:32.435Z,0
2022-12-31T06:56:48.677Z,0
2022-12-31T06:58:04.912Z,0
2022-12-31T06:59:21.150Z,0
2022-12-31T07:00:37.401Z,0
2022-12-31T07:01:53.633Z,0
2022-12-31T07:03:09.879Z,0
2022-12-31T07:04:26.130Z,0
2022-12-31T07:05:42.371Z,0
2022-12-31T07:06:58.597Z,0
2022-12-31T07:08:14.839Z,0
2022-12-31T07:09:31.077Z,0
2022-12-31T07:10:47.314Z,0
2022-12-31T07:12:02.574Z,0
2022-12-31T07:13:18.803Z,0
2022-12-31T07:14:35.056Z,0
2022-12-31T07:15:51.305Z,0
2022-12-31T07:17:07.531Z,0
2022-12-31T07:18:23.766Z,0
2022-12-31T07:19:40.017Z,0
2022-12-31T07:20:56.247Z,5
2022-12-31T07:22:12.487Z,5
2022-12-31T07:23:28.726Z,5
2022-12-31T07:24:44.970Z,5
2022-12-31T07:26:01.207Z,5
2022-12-31T07:27:17.459Z,5
2022-12-31T07:28:32.702Z,5
2022-12-31T07:29:48.947Z,5
2022-12-31T07:31:05.190Z,5
2022-12-31T07:32:21.418Z,0
2022-12-31T07:33:37.663Z,0
2022-12-31T07:34:53.909Z,0
2022-12-31T07:36:10.149Z,0
2022-12-31T07:37:26.383Z,0
2022-12-31T07:38:42.622Z,0
2022-12-31T07:39:58.874Z,5
2022-12-31T07:41:15.098Z,5
2022-12-31T07:42:31.341Z,5
2022-12-31T07:43:47.597Z,5
2022-12-31T07:45:02.837Z,5
2022-12-31T07:46:19.081Z,5
2022-12-31T07:47:35.317Z,5
2022-12-31T07:48:51.559Z,11
2022-12-31T07:50:07.801Z,5
2022-12-31T07:51:24.033Z,11
2022-12-31T07:52:40.281Z,16
2022-12-31T07:53:56.525Z,16
2022-12-31T07:55:12.754Z,16
2022-12-31T07:56:29.006Z,16
2022-12-31T07:57:45.239Z,16
2022-12-31T07:59:01.475Z,16
2022-12-31T08:00:17.721Z,16
2022-12-31T08:01:32.983Z,11
2022-12-31T08:02:49.205Z,11
2022-12-31T08:04:05.445Z,11
2022-12-31T08:05:21.684Z,11
2022-12-31T08:06:37.930Z,16
2022-12-31T08:07:54.173Z,16
2022-12-31T08:09:10.411Z,16
2022-12-31T08:10:26.644Z,22
2022-12-31T08:11:42.884Z,22
2022-12-31T08:12:59.141Z,22
2022-12-31T08:14:15.364Z,22
2022-12-31T08:15:31.613Z,28
2022-12-31T08:16:47.857Z,22
2022-12-31T08:18:03.104Z,16
2022-12-31T08:19:19.340Z,22
2022-12-31T08:20:35.595Z,22
2022-12-31T08:21:51.831Z,22
2022-12-31T08:23:08.065Z,22
2022-12-31T08:24:24.311Z,22
2022-12-31T08:25:40.550Z,22
2022-12-31T08:26:56.789Z,33
2022-12-31T08:28:13.017Z,50
2022-12-31T08:29:29.262Z,73
2022-12-31T08:30:45.497Z,84
2022-12-31T08:32:01.741Z,101
2022-12-31T08:33:17.980Z,112
2022-12-31T08:34:33.234Z,106
2022-12-31T08:35:49.476Z,73
2022-12-31T08:37:05.720Z,56
2022-12-31T08:38:21.963Z,45
2022-12-31T08:39:38.210Z,45
2022-12-31T08:40:54.445Z,39
2022-12-31T08:42:10.680Z,39
2022-12-31T08:43:26.913Z,33
2022-12-31T08:44:43.154Z,33
2022-12-31T08:45:59.391Z,28
2022-12-31T08:47:15.627Z,28
2022-12-31T08:48:31.874Z,28
2022-12-31T08:49:48.112Z,22
2022-12-31T08:51:03.384Z,22
2022-12-31T08:52:19.605Z,22
2022-12-31T08:53:35.845Z,28
2022-12-31T08:54:52.091Z,28
2022-12-31T08:56:08.327Z,28
2022-12-31T08:57:24.575Z,22
2022-12-31T08:58:40.813Z,22
2022-12-31T08:59:57.059Z,16
2022-12-31T09:01:13.296Z,16
2022-12-31T09:02:29.542Z,22
2022-12-31T09:03:45.781Z,22
2022-12-31T09:05:02.009Z,22
2022-12-31T09:06:18.246Z,22
2022-12-31T09:07:33.513Z,22
2022-12-31T09:08:49.739Z,28
2022-12-31T09:10:05.980Z,28
2022-12-31T09:11:22.226Z,28
2022-12-31T09:12:38.473Z,28
2022-12-31T09:13:54.699Z,28
2022-12-31T09:15:10.935Z,28
2022-12-31T09:16:27.191Z,33
2022-12-31T09:17:43.434Z,39
2022-12-31T09:18:59.672Z,45
2022-12-31T09:20:15.905Z,56
2022-12-31T09:21:32.149Z,61
2022-12-31T09:22:48.390Z,84
2022-12-31T09:24:03.634Z,129
2022-12-31T09:25:19.886Z,196
2022-12-31T09:26:36.115Z,309
2022-12-31T09:27:52.356Z,326
2022-12-31T09:29:08.597Z,691
2022-12-31T09:30:24.836Z,714
2022-12-31T09:31:41.078Z,680
2022-12-31T09:32:57.313Z,781
2022-12-31T09:34:13.550Z,973
2022-12-31T09:35:29.802Z,1248
2022-12-31T09:36:46.032Z,1141
2022-12-31T09:38:02.269Z,1001
2022-12-31T09:39:18.510Z,1001
2022-12-31T09:40:33.775Z,1288
2022-12-31T09:41:50.011Z,1231
2022-12-31T09:43:06.253Z,1209
2022-12-31T09:44:22.482Z,1293
2022-12-31T09:45:38.729Z,1462
2022-12-31T09:46:54.981Z,1614
2022-12-31T09:48:11.202Z,1676
2022-12-31T09:49:27.461Z,1636
2022-12-31T09:50:43.700Z,1614
2022-12-31T09:51:59.936Z,1563
2022-12-31T09:54:32.401Z,1507
2022-12-31T09:55:48.643Z,1299
2022-12-31T09:57:03.911Z,1434
2022-12-31T09:58:20.147Z,1451
2022-12-31T09:59:36.388Z,1558
2022-12-31T10:00:52.620Z,1485
2022-12-31T10:02:08.856Z,1631
2022-12-31T10:03:25.102Z,1400
2022-12-31T10:04:41.336Z,1681
2022-12-31T10:05:57.582Z,1608
2022-12-31T10:07:13.831Z,1558
2022-12-31T10:08:30.066Z,1597
2022-12-31T10:09:46.304Z,1670
2022-12-31T10:11:02.543Z,1676
2022-12-31T10:12:18.795Z,1749
2022-12-31T10:13:35.155Z,1580
2022-12-31T10:14:51.380Z,1665
2022-12-31T10:16:07.631Z,1873
2022-12-31T10:17:23.866Z,1794
2022-12-31T10:18:40.098Z,1890
2022-12-31T10:19:56.354Z,2019
2022-12-31T10:21:12.584Z,1698
2022-12-31T10:22:28.827Z,1119
2022-12-31T10:23:45.068Z,1006
2022-12-31T10:25:01.304Z,1771
2022-12-31T10:26:17.541Z,573
2022-12-31T10:27:33.784Z,1490
2022-12-31T10:28:50.025Z,1721
2022-12-31T10:30:06.255Z,1912
2022-12-31T10:31:21.524Z,1665
2022-12-31T10:32:37.760Z,1631
2022-12-31T10:33:53.990Z,1698
2022-12-31T10:35:10.232Z,388
2022-12-31T10:36:26.468Z,382
2022-12-31T10:37:42.722Z,281
2022-12-31T10:38:58.964Z,382
2022-12-31T10:40:15.202Z,270
2022-12-31T10:41:31.442Z,2070
2022-12-31T10:42:47.683Z,2424
2022-12-31T10:44:03.922Z,1653
2022-12-31T10:45:20.170Z,1333
2022-12-31T10:46:36.412Z,849
2022-12-31T10:47:51.656Z,1400
2022-12-31T10:49:07.903Z,1895
2022-12-31T10:50:24.150Z,2081
2022-12-31T10:51:40.377Z,2131
2022-12-31T10:52:56.621Z,2278
2022-12-31T10:54:11.877Z,2525
2022-12-31T10:55:28.114Z,2413
2022-12-31T10:56:44.353Z,1968
2022-12-31T10:58:00.594Z,1828
2022-12-31T10:59:16.844Z,849
2022-12-31T11:00:33.075Z,573
2022-12-31T11:01:49.318Z,123
2022-12-31T11:03:05.551Z,95
2022-12-31T11:04:21.807Z,101
2022-12-31T11:05:38.043Z,298
2022-12-31T11:06:54.271Z,455
2022-12-31T11:08:10.510Z,466
2022-12-31T11:09:26.759Z,720
2022-12-31T11:10:43.008Z,585
2022-12-31T11:11:58.261Z,1693
2022-12-31T11:13:14.496Z,1473
2022-12-31T11:14:30.735Z,849
2022-12-31T11:15:46.970Z,1400
2022-12-31T11:17:03.213Z,1029
2022-12-31T11:18:19.455Z,1029
2022-12-31T11:19:35.703Z,984
2022-12-31T11:20:51.933Z,1001
2022-12-31T11:22:08.169Z,1006
2022-12-31T11:23:24.419Z,770
2022-12-31T11:24:40.647Z,855
2022-12-31T11:25:56.885Z,765
2022-12-31T11:27:13.133Z,585
2022-12-31T11:28:28.382Z,1018
2022-12-31T11:29:44.618Z,495
2022-12-31T11:31:00.864Z,855
2022-12-31T11:32:17.096Z,601
2022-12-31T11:33:33.345Z,967
2022-12-31T11:34:49.595Z,686
2022-12-31T11:36:05.831Z,500
2022-12-31T11:37:22.062Z,1051
2022-12-31T11:38:38.302Z,956
2022-12-31T11:39:54.541Z,326
2022-12-31T11:41:10.777Z,236
2022-12-31T11:42:27.025Z,236
2022-12-31T11:43:43.254Z,601
2022-12-31T11:44:58.524Z,455
2022-12-31T11:46:14.753Z,281
2022-12-31T11:47:30.999Z,253
2022-12-31T11:48:47.239Z,230
2022-12-31T11:50:03.487Z,258
2022-12-31T11:51:19.719Z,264
2022-12-31T11:52:35.951Z,236
2022-12-31T11:53:52.195Z,225
2022-12-31T11:55:08.446Z,354
2022-12-31T11:56:24.000Z,416
2022-12-31T11:57:40.918Z,286
2022-12-31T11:58:57.157Z,202
2022-12-31T12:00:13.396Z,146
2022-12-31T12:01:28.654Z,101
2022-12-31T12:02:44.897Z,73
2022-12-31T12:04:01.142Z,61
2022-12-31T12:05:17.365Z,61
2022-12-31T12:06:33.606Z,56
2022-12-31T12:07:49.845Z,45
2022-12-31T12:09:06.089Z,39
2022-12-31T12:10:22.320Z,39
2022-12-31T12:11:38.572Z,33
2022-12-31T12:12:54.807Z,28
2022-12-31T12:14:11.049Z,33
2022-12-31T12:15:27.299Z,39
2022-12-31T12:16:43.524Z,45
2022-12-31T12:17:58.787Z,45
2022-12-31T12:19:15.021Z,39
2022-12-31T12:20:31.259Z,50
2022-12-31T12:21:47.499Z,61
2022-12-31T12:23:03.742Z,61
2022-12-31T12:24:19.989Z,73
2022-12-31T12:25:36.226Z,112
2022-12-31T12:26:52.466Z,157
2022-12-31T12:28:08.702Z,196
2022-12-31T12:29:24.944Z,219
2022-12-31T12:30:41.187Z,219
2022-12-31T12:31:57.425Z,208
2022-12-31T12:33:13.667Z,202
2022-12-31T12:34:28.918Z,191
2022-12-31T12:37:01.391Z,185
2022-12-31T12:38:17.637Z,185
2022-12-31T12:39:33.873Z,191
2022-12-31T12:40:50.115Z,191
2022-12-31T12:42:06.353Z,191
2022-12-31T12:43:22.605Z,191
2022-12-31T12:44:38.826Z,191
2022-12-31T12:47:11.310Z,196
2022-12-31T12:48:27.548Z,196
2022-12-31T12:49:43.788Z,196
2022-12-31T12:50:59.047Z,196
2022-12-31T12:52:15.288Z,196
2022-12-31T12:53:31.536Z,196
2022-12-31T12:54:47.774Z,191
2022-12-31T12:56:04.012Z,180
2022-12-31T12:57:20.250Z,168
2022-12-31T12:58:36.488Z,157
2022-12-31T12:59:52.726Z,140
2022-12-31T13:01:08.970Z,135
2022-12-31T13:02:25.206Z,123
2022-12-31T13:03:41.445Z,112
2022-12-31T13:04:57.691Z,101
2022-12-31T13:06:13.937Z,101
2022-12-31T13:07:29.179Z,90
2022-12-31T13:08:45.413Z,84
2022-12-31T13:10:01.669Z,78
2022-12-31T13:11:17.911Z,78
2022-12-31T13:12:34.140Z,78
2022-12-31T13:13:50.379Z,78
2022-12-31T13:15:06.620Z,78
2022-12-31T13:16:22.868Z,84
2022-12-31T13:17:39.092Z,90
2022-12-31T13:18:55.332Z,90
2022-12-31T13:20:11.579Z,90
2022-12-31T13:21:27.809Z,95
2022-12-31T13:22:44.051Z,95
2022-12-31T13:23:59.313Z,95
2022-12-31T13:25:15.564Z,95
2022-12-31T13:26:31.799Z,95
2022-12-31T13:27:48.026Z,95
2022-12-31T13:29:04.271Z,90
2022-12-31T13:30:20.505Z,84
2022-12-31T13:31:36.761Z,78
2022-12-31T13:32:52.998Z,84
2022-12-31T13:34:09.235Z,84
2022-12-31T13:35:25.474Z,90
2022-12-31T13:36:41.705Z,95
2022-12-31T13:37:57.951Z,90
2022-12-31T13:39:14.200Z,90
2022-12-31T13:40:29.440Z,90
2022-12-31T13:41:45.684Z,84
2022-12-31T13:43:01.933Z,84
2022-12-31T13:44:18.170Z,78
2022-12-31T13:45:34.416Z,78
2022-12-31T13:46:50.652Z,73
2022-12-31T13:48:06.881Z,73
2022-12-31T13:49:23.128Z,67
2022-12-31T13:50:39.366Z,67
2022-12-31T13:51:55.603Z,61
2022-12-31T13:53:11.842Z,61
2022-12-31T13:54:28.089Z,56
2022-12-31T13:55:44.316Z,50
2022-12-31T13:56:59.579Z,50
2022-12-31T13:58:15.810Z,50
2022-12-31T13:59:32.054Z,50
2022-12-31T14:00:48.289Z,50
2022-12-31T14:02:04.536Z,50
2022-12-31T14:03:20.775Z,50
2022-12-31T14:04:37.027Z,50
2022-12-31T14:05:53.251Z,45
2022-12-31T14:07:09.499Z,45
2022-12-31T14:08:25.734Z,45
2022-12-31T14:09:41.979Z,39
2022-12-31T14:10:58.216Z,39
2022-12-31T14:12:14.465Z,39
2022-12-31T14:13:29.714Z,39
2022-12-31T14:14:45.945Z,33
2022-12-31T14:16:02.185Z,33
2022-12-31T14:17:18.437Z,33
2022-12-31T14:18:34.681Z,33
2022-12-31T14:19:50.909Z,28
2022-12-31T14:21:07.145Z,28
2022-12-31T14:22:23.394Z,28
2022-12-31T14:23:39.634Z,33
2022-12-31T14:26:12.103Z,33
2022-12-31T14:27:28.343Z,33
2022-12-31T14:28:44.596Z,33
2022-12-31T14:30:00.939Z,33
2022-12-31T14:31:16.214Z,39
2022-12-31T14:32:32.448Z,39
2022-12-31T14:33:48.695Z,39
2022-12-31T14:35:04.918Z,39
2022-12-31T14:36:21.165Z,39
2022-12-31T14:37:37.398Z,39
2022-12-31T14:38:53.650Z,39
2022-12-31T14:40:09.000Z,33
2022-12-31T14:41:26.126Z,33
2022-12-31T14:42:42.370Z,33
2022-12-31T14:43:58.612Z,33
2022-12-31T14:45:14.851Z,33
2022-12-31T14:46:31.089Z,33
2022-12-31T14:47:46.329Z,28
2022-12-31T14:49:02.570Z,28
2022-12-31T14:50:18.809Z,28
2022-12-31T14:51:35.048Z,22
2022-12-31T14:52:51.301Z,22
2022-12-31T14:54:07.546Z,22
2022-12-31T14:55:23.770Z,16
2022-12-31T14:56:40.019Z,16
2022-12-31T14:57:56.259Z,16
2022-12-31T14:59:12.506Z,11
2022-12-31T15:00:28.732Z,11
2022-12-31T15:01:44.979Z,11
2022-12-31T15:03:01.216Z,11
2022-12-31T15:04:16.473Z,5
2022-12-31T15:05:32.715Z,5
2022-12-31T15:06:48.951Z,5
2022-12-31T15:08:05.191Z,5
2022-12-31T15:09:21.551Z,5
2022-12-31T15:10:37.788Z,5
2022-12-31T15:11:54.047Z,0
2022-12-31T15:13:10.267Z,0
2022-12-31T15:14:26.524Z,0
2022-12-31T15:15:42.747Z,0
2022-12-31T15:16:58.994Z,0
2022-12-31T15:18:15.246Z,0
2022-12-31T15:19:31.474Z,0
2022-12-31T15:20:47.705Z,0
2022-12-31T15:22:03.968Z,0
2022-12-31T15:23:20.199Z,0
2022-12-31T15:24:36.437Z,0
2022-12-31T15:25:51.681Z,0
2022-12-31T15:27:07.927Z,0
2022-12-31T15:28:24.166Z,0
2022-12-31T15:29:40.414Z,0
2022-12-31T15:30:56.656Z,0
2022-12-31T15:32:12.900Z,0
2022-12-31T15:33:29.124Z,0
2022-12-31T15:34:45.364Z,0
2022-12-31T15:36:01.610Z,0
2022-12-31T15:37:17.861Z,0
2022-12-31T15:38:34.090Z,0
2022-12-31T15:39:50.341Z,0
2022-12-31T15:41:06.576Z,0
2022-12-31T15:42:22.818Z,0
2022-12-31T15:43:39.039Z,0
2022-12-31T15:44:54.304Z,0
2022-12-31T15:46:10.559Z,0
2022-12-31T15:47:26.825Z,0
2022-12-31T15:48:43.127Z,0
2022-12-31T15:49:59.413Z,0
2022-12-31T15:51:15.716Z,0
2022-12-31T15:52:32.014Z,0
2022-12-31T15:53:48.317Z,0
2022-12-31T15:55:04.604Z,0
2022-12-31T15:56:20.892Z,0
2022-12-31T15:57:37.199Z,0
2022-12-31T15:58:53.482Z,0
2022-12-31T16:00:09.767Z,0
2022-12-31T16:01:25.000Z,0
2022-12-31T16:02:41.379Z,0
2022-12-31T16:03:57.673Z,0
2022-12-31T16:05:13.966Z,0
2022-12-31T16:06:30.266Z,0
2022-12-31T16:07:46.545Z,0
2022-12-31T16:09:02.847Z,0
2022-12-31T16:10:19.148Z,0
2022-12-31T16:11:35.437Z,0
2022-12-31T16:12:51.732Z,0
2022-12-31T16:14:08.025Z,0
2022-12-31T16:15:24.303Z,0
2022-12-31T16:16:40.620Z,0
2022-12-31T16:17:55.924Z,0
2022-12-31T16:19:12.209Z,0
2022-12-31T16:20:28.509Z,0
2022-12-31T16:21:44.806Z,0
2022-12-31T16:23:01.094Z,0
2022-12-31T16:24:17.377Z,0
2022-12-31T16:25:33.670Z,0
2022-12-31T16:26:49.968Z,0
2022-12-31T16:28:06.274Z,0
2022-12-31T16:29:22.565Z,0
2022-12-31T16:30:38.867Z,0
2022-12-31T16:31:55.156Z,0
2022-12-31T16:33:11.436Z,0
2022-12-31T16:34:26.742Z,0
2022-12-31T16:35:43.044Z,0
2022-12-31T16:36:59.339Z,0
2022-12-31T16:38:15.629Z,0
2022-12-31T16:39:31.931Z,0
2022-12-31T16:40:48.218Z,0
2022-12-31T16:42:04.513Z,0
2022-12-31T16:43:20.814Z,0
2022-12-31T16:44:37.106Z,0
2022-12-31T16:45:53.392Z,0
2022-12-31T16:47:09.683Z,0
2022-12-31T16:48:25.978Z,0
2022-12-31T16:49:42.271Z,0
2022-12-31T16:50:57.585Z,0
2022-12-31T16:52:13.884Z,0
2022-12-31T16:53:30.160Z,0
2022-12-31T16:54:46.453Z,0
2022-12-31T16:56:02.757Z,0
2022-12-31T16:57:19.059Z,0
2022-12-31T16:58:35.344Z,0
2022-12-31T16:59:51.654Z,0
2022-12-31T17:01:07.942Z,0
2022-12-31T17:02:24.225Z,0
2022-12-31T17:03:40.532Z,0
2022-12-31T17:04:56.815Z,0
2022-12-31T17:06:13.107Z,0
2022-12-31T17:07:28.413Z,0
2022-12-31T17:08:44.711Z,0
2022-12-31T17:10:01.009Z,0
2022-12-31T17:11:17.304Z,0
2022-12-31T17:12:33.591Z,0
2022-12-31T17:13:49.898Z,0
2022-12-31T17:15:06.183Z,0
2022-12-31T17:16:22.479Z,0
2022-12-31T17:17:38.774Z,0
2022-12-31T17:18:55.065Z,0
2022-12-31T17:20:11.372Z,0
2022-12-31T17:21:27.644Z,0
2022-12-31T17:22:43.928Z,0
2022-12-31T17:23:59.262Z,0
2022-12-31T17:25:15.542Z,0
2022-12-31T17:26:31.826Z,0
2022-12-31T17:27:48.147Z,0
2022-12-31T17:29:04.411Z,0
2022-12-31T17:30:20.725Z,0
2022-12-31T17:31:36.998Z,0
2022-12-31T17:32:53.312Z,0
2022-12-31T17:34:09.598Z,0
2022-12-31T17:35:25.892Z,0
2022-12-31T17:36:42.181Z,0
2022-12-31T17:37:58.479Z,0
2022-12-31T17:39:14.779Z,0
2022-12-31T17:40:30.086Z,0
2022-12-31T17:41:46.381Z,0
2022-12-31T17:43:02.676Z,0
2022-12-31T17:44:18.969Z,0
2022-12-31T17:45:35.252Z,0
2022-12-31T17:46:51.545Z,0
2022-12-31T17:48:07.837Z,0
2022-12-31T17:49:24.137Z,0
2022-12-31T17:50:40.443Z,0
2022-12-31T17:51:56.729Z,0
2022-12-31T17:53:13.025Z,0
2022-12-31T17:54:29.325Z,0
2022-12-31T17:55:45.600Z,0
2022-12-31T17:57:00.910Z,0
2022-12-31T17:58:17.216Z,0
2022-12-31T17:59:33.511Z,0
2022-12-31T18:00:49.793Z,0
2022-12-31T18:02:06.092Z,0
2022-12-31T18:03:22.385Z,0
2022-12-31T18:04:38.675Z,0
2022-12-31T18:05:54.967Z,0
2022-12-31T18:07:11.276Z,0
2022-12-31T18:08:27.555Z,0
2022-12-31T18:09:43.848Z,0
2022-12-31T18:11:00.145Z,0
2022-12-31T18:12:16.434Z,0
2022-12-31T18:13:31.749Z,0
2022-12-31T18:14:48.041Z,0
2022-12-31T18:16:04.328Z,0
2022-12-31T18:17:20.629Z,0
2022-12-31T18:18:36.925Z,0
2022-12-31T18:19:53.210Z,0
2022-12-31T18:21:09.506Z,0
2022-12-31T18:22:25.796Z,0
2022-12-31T18:23:42.096Z,0
2022-12-31T18:24:58.403Z,0
2022-12-31T18:26:14.685Z,0